Deblin, Poland

9:54 AM CET on November 01, 2014 (GMT +0100)
Okecie | Change Station
CLOSE
Current Station
Airport
Location: Warsaw,
Elevation: 348 ft
Nearby Weather Stations

Elev 348 ft 52.16 °N, 20.96 °E | Updated 24 minutes ago

Mostly Cloudy
Mostly Cloudy
41 °F
Feels Like 39 °F
N
4
Wind Variable Wind from SE

Today
High -- | Low -- °F
--% Chance of Precip.
Yesterday
High -- | Low -- °F
Precip. -- in
6:25 AM 4:05 PM
Waxing Gibbous, 64% visible
Pressure 30.27 in
Visibility 3.7 miles
Clouds Mostly Cloudy 2300 ft
Windchill 39 °F
Dew Point 37 °F
Humidity 87%
Rainfall 0.00 in
Snow Depth Not available.
UV 1 out of 12
Pollen Not available.
Air Quality Not available.
Flu Activity Not available.
METAR EPWA 010830Z 14003KT 100V170 6000 BKN023 05/03 Q1025 NOSIG

More Conditions Fewer Conditions

Pressure 30.27 in
Visibility 3.7 miles
Clouds Mostly Cloudy 2300 ft
Windchill 39 °F
Dew Point 37 °F
Humidity 87%
Rainfall 0.00 in
Snow Depth Not available.
UV 1 out of 12
Pollen Not available.
Air Quality Not available.
Flu Activity Not available.
METAR EPWA 010830Z 14003KT 100V170 6000 BKN023 05/03 Q1025 NOSIG

More Conditions Fewer Conditions

10-Day Weather Forecast

Almanac

Astronomy

Nov. 01, 2014 Rise Set
Actual Time
Civil Twilight
Nautical Twilight
Astronomical Twilight
Moon
Length of Visible Light
Length of Day
Tomorrow will be .
, % of the Moon is Illuminated

Today's Extremes

Country Highs Country Lows

Community

WunderPhotos

Upload Photos

1,766,871 photos uploaded!

WunderBlogs® & News

Nearby

Air Quality

  Air Quality AQ Index Pollutant
Not available.

Snow Depth

Station Depth Elevation

Earthquake Activity

City Distance Mag. Time & Date
Minimum magnitude displayed is 2.5.

Coastal Water Temperatures

Place Temperature

Nearby Weather Stations